createdAt,value
2023-01-26T00:28:30.344Z,-0.07
2023-01-26T00:31:07.143Z,0.03
2023-01-26T00:33:35.776Z,-0.02
2023-01-26T00:36:06.053Z,-0.12
2023-01-26T00:38:35.289Z,-0.13
2023-01-26T00:41:04.073Z,-0.02
2023-01-26T00:43:34.192Z,-0.16
2023-01-26T00:46:03.392Z,-0.17
2023-01-26T00:48:32.537Z,-0.12
2023-01-26T00:51:01.546Z,-0.17
2023-01-26T00:53:33.758Z,-0.18
2023-01-26T00:56:04.202Z,-0.19
2023-01-26T01:01:37.963Z,-0.29
2023-01-26T01:04:06.765Z,-0.31
2023-01-26T01:06:35.643Z,-0.41
2023-01-26T01:09:04.523Z,-0.45
2023-01-26T01:11:35.211Z,-0.40
2023-01-26T01:14:07.343Z,-0.39
2023-01-26T01:16:40.676Z,-0.45
2023-01-26T01:19:11.664Z,-0.36
2023-01-26T01:21:40.660Z,-0.41
2023-01-26T01:24:09.700Z,-0.36
2023-01-26T01:26:38.923Z,-0.35
2023-01-26T01:29:08.140Z,-0.37
2023-01-26T01:31:36.906Z,-0.39
2023-01-26T01:34:05.967Z,-0.37
2023-01-26T01:36:34.708Z,-0.40
2023-01-26T01:39:03.543Z,-0.38
2023-01-26T01:41:32.153Z,-0.26
2023-01-26T01:44:20.043Z,-0.23
2023-01-26T01:46:57.864Z,-0.28
2023-01-26T01:49:47.639Z,-0.26
2023-01-26T01:52:27.962Z,-0.24
2023-01-26T01:55:02.335Z,-0.28
2023-01-26T01:57:38.523Z,-0.26
2023-01-26T02:00:12.389Z,-0.36
2023-01-26T02:02:42.479Z,-0.46
2023-01-26T02:05:17.031Z,-0.44
2023-01-26T02:07:46.493Z,-0.37
2023-01-26T02:10:24.238Z,-0.37
2023-01-26T02:13:02.242Z,-0.40
2023-01-26T02:15:32.141Z,-0.39
2023-01-26T02:18:03.761Z,-0.33
2023-01-26T02:20:53.750Z,-0.38
2023-01-26T02:23:34.139Z,-0.37
2023-01-26T02:26:12.519Z,-0.42
2023-01-26T02:28:42.411Z,-0.39
2023-01-26T02:31:12.335Z,-0.47
2023-01-26T02:33:48.587Z,-0.44
2023-01-26T02:36:29.029Z,-0.45
2023-01-26T02:39:17.176Z,-0.46
2023-01-26T03:50:23.293Z,-0.89
2023-01-26T03:55:24.365Z,-0.79
2023-01-26T04:21:08.873Z,-0.49
2023-01-26T04:23:54.722Z,-0.51
2023-01-26T05:28:33.831Z,-0.62
2023-01-26T06:07:00.724Z,-0.51
2023-01-26T07:22:19.954Z,0.12
2023-01-26T07:24:50.285Z,0.09
2023-01-26T07:27:20.750Z,0.05
2023-01-26T07:29:50.118Z,0.14
2023-01-26T07:32:23.577Z,0.27
2023-01-26T07:34:58.643Z,0.17
2023-01-26T07:37:33.639Z,0.30
2023-01-26T07:40:04.262Z,0.37
2023-01-26T07:42:33.226Z,0.59
2023-01-26T07:45:02.053Z,0.48
2023-01-26T07:47:30.844Z,0.73
2023-01-26T07:49:59.543Z,0.75
2023-01-26T07:55:46.922Z,0.72
2023-01-26T07:58:21.850Z,0.73
2023-01-26T08:00:50.465Z,0.95
2023-01-26T08:03:19.492Z,0.98
2023-01-26T08:05:58.289Z,0.90
2023-01-26T08:08:36.209Z,0.89
2023-01-26T08:13:53.939Z,1.06
2023-01-26T08:20:25.366Z,1.15
2023-01-26T08:30:03.550Z,1.47
2023-01-26T08:32:34.443Z,1.62
2023-01-26T08:35:38.959Z,1.78
2023-01-26T08:44:39.916Z,1.41
2023-01-26T08:47:07.833Z,1.30
2023-01-26T08:49:37.679Z,1.43
2023-01-26T08:52:09.319Z,1.53
2023-01-26T08:54:38.317Z,1.33
2023-01-26T08:57:10.123Z,1.35
2023-01-26T08:59:46.456Z,1.38
2023-01-26T10:45:16.414Z,1.70
2023-01-26T10:47:46.912Z,1.78
2023-01-26T10:50:20.175Z,1.88
2023-01-26T10:56:14.300Z,2.34
2023-01-26T11:13:45.346Z,2.27
2023-01-26T11:16:28.610Z,2.40
2023-01-26T11:19:07.058Z,2.33
2023-01-26T11:22:10.546Z,2.54
2023-01-26T11:24:54.398Z,2.46
2023-01-26T11:27:34.866Z,2.24
2023-01-26T11:30:16.636Z,2.42
2023-01-26T11:36:44.545Z,2.81
2023-01-26T11:39:37.396Z,2.68
2023-01-26T11:42:26.845Z,2.59
2023-01-26T11:45:51.760Z,2.87
2023-01-26T11:48:32.824Z,2.79
2023-01-26T12:22:57.456Z,2.06
2023-01-26T12:40:09.551Z,2.14
2023-01-26T12:55:42.826Z,1.94
2023-01-26T12:58:17.477Z,1.95
2023-01-26T13:01:14.344Z,1.94
2023-01-26T13:03:58.387Z,1.94
2023-01-26T13:06:28.737Z,1.94
2023-01-26T13:09:04.676Z,1.95
2023-01-26T13:11:56.501Z,2.01
2023-01-26T13:14:33.858Z,1.78
2023-01-26T13:17:22.450Z,1.68
2023-01-26T13:19:58.008Z,1.69
2023-01-26T13:25:34.242Z,1.79
2023-01-26T13:28:50.232Z,1.68
2023-01-26T13:31:51.484Z,1.67
2023-01-26T13:34:42.806Z,1.66
2023-01-26T13:40:52.812Z,1.79
2023-01-26T13:44:03.713Z,1.70
2023-01-26T13:50:52.241Z,1.70
2023-01-26T13:53:49.131Z,1.70
2023-01-26T13:59:34.748Z,1.70
2023-01-26T14:02:03.631Z,1.67
2023-01-26T14:04:35.399Z,1.80
2023-01-26T14:07:10.329Z,1.88
2023-01-26T14:09:56.162Z,1.72
2023-01-26T14:12:30.419Z,1.86
2023-01-26T14:15:02.448Z,1.85
2023-01-26T14:17:39.053Z,1.96
2023-01-26T14:20:27.313Z,1.89
2023-01-26T14:23:12.155Z,1.89
2023-01-26T14:26:03.519Z,1.86
2023-01-26T14:28:26.263Z,1.80
2023-01-26T14:30:58.155Z,1.81
2023-01-26T14:33:28.348Z,1.76
2023-01-26T14:36:06.397Z,2.01
2023-01-26T14:38:49.094Z,2.06
2023-01-26T14:44:37.731Z,1.95
2023-01-26T14:47:12.386Z,1.91
2023-01-26T14:49:59.316Z,1.82
2023-01-26T14:52:39.577Z,1.89
2023-01-26T14:55:20.175Z,1.94
2023-01-26T14:57:49.000Z,1.94
2023-01-26T15:00:31.257Z,1.98
2023-01-26T15:09:56.951Z,1.60
2023-01-26T15:12:27.316Z,1.50
2023-01-26T15:15:01.183Z,1.25
2023-01-26T15:17:41.900Z,1.15
2023-01-26T15:20:30.303Z,1.10
2023-01-26T15:22:59.155Z,1.07
2023-01-26T15:25:33.280Z,0.95
2023-01-26T15:28:03.048Z,0.84
2023-01-26T15:30:34.990Z,0.64
2023-01-26T15:33:04.620Z,0.53
2023-01-26T15:35:36.102Z,0.60
2023-01-26T15:38:14.493Z,0.51
2023-01-26T15:40:45.952Z,0.43
2023-01-26T15:43:30.160Z,0.41
2023-01-26T15:46:13.718Z,0.37
2023-01-26T15:48:40.140Z,0.38
2023-01-26T15:51:16.048Z,0.30
2023-01-26T15:53:51.134Z,0.26
2023-01-26T15:56:19.909Z,0.33
2023-01-26T15:58:48.665Z,0.32
2023-01-26T16:01:21.707Z,0.21
2023-01-26T16:03:52.658Z,0.29
2023-01-26T16:06:29.643Z,0.24
2023-01-26T16:08:59.096Z,0.21
2023-01-26T16:11:33.352Z,0.31
2023-01-26T16:14:30.627Z,0.34
2023-01-26T16:16:59.675Z,0.29
2023-01-26T16:19:35.723Z,0.19
2023-01-26T16:22:03.950Z,0.24
2023-01-26T16:24:33.014Z,0.43
2023-01-26T16:27:43.339Z,0.50
2023-01-26T16:30:12.889Z,0.38
2023-01-26T16:32:42.822Z,0.44
2023-01-26T16:35:17.038Z,0.48
2023-01-26T16:44:37.122Z,0.32
2023-01-26T19:11:21.090Z,-0.09
2023-01-26T19:13:50.433Z,0.01
2023-01-26T19:16:20.755Z,-0.45
2023-01-26T19:18:50.129Z,-0.13
2023-01-26T19:21:21.895Z,-0.16
2023-01-26T19:23:54.857Z,-0.10
2023-01-26T19:26:30.086Z,-0.14
2023-01-26T19:33:16.698Z,-0.29
2023-01-26T19:35:45.646Z,-0.29
2023-01-26T19:38:19.143Z,-0.38
2023-01-26T19:40:52.235Z,-0.28
2023-01-26T19:43:28.278Z,-0.28
2023-01-26T19:45:59.121Z,-0.25
2023-01-26T19:48:31.327Z,-0.23
2023-01-26T19:51:07.254Z,-0.16
2023-01-26T19:53:39.067Z,-0.04
2023-01-26T19:56:25.277Z,-0.05
2023-01-26T19:59:20.173Z,0.06
2023-01-26T20:01:50.872Z,0.06
2023-01-26T20:04:21.302Z,0.18
2023-01-26T20:06:50.894Z,0.08
2023-01-26T20:09:19.622Z,-0.09
2023-01-26T20:11:53.836Z,-0.01
2023-01-26T20:19:14.743Z,-0.18
2023-01-26T20:22:13.617Z,-0.16
2023-01-26T20:24:46.069Z,-0.28
2023-01-26T20:30:18.181Z,-0.31
2023-01-26T20:32:48.474Z,-0.36
2023-01-26T20:35:17.078Z,-0.26
2023-01-26T20:37:45.762Z,-0.24
2023-01-26T20:40:15.055Z,-0.28
2023-01-26T20:42:48.660Z,-0.41
2023-01-26T20:45:17.618Z,-0.47
2023-01-26T20:47:47.724Z,-0.30
2023-01-26T20:50:19.482Z,-0.16
2023-01-26T20:52:48.215Z,-0.25
2023-01-26T20:55:16.904Z,-0.07
2023-01-26T21:14:30.652Z,-0.14
2023-01-26T21:20:30.585Z,0.05
2023-01-26T21:23:05.530Z,0.02
2023-01-26T21:25:41.879Z,-0.07
2023-01-26T21:28:14.957Z,-0.04
2023-01-26T21:30:47.483Z,0.04
2023-01-26T21:33:38.869Z,0.03
2023-01-26T21:35:51.787Z,-0.05
2023-01-26T21:45:33.734Z,-0.29
2023-01-26T22:05:23.795Z,-0.08
2023-01-26T22:08:03.249Z,-0.02
2023-01-26T22:10:33.806Z,0.05
2023-01-26T22:13:02.620Z,0.18
2023-01-26T22:15:35.394Z,0.24
2023-01-26T22:18:04.229Z,0.16
2023-01-26T22:20:32.997Z,0.28
2023-01-26T22:23:05.274Z,0.22
2023-01-26T22:25:37.160Z,0.09
2023-01-26T22:30:51.501Z,-0.19
2023-01-26T22:33:20.408Z,-0.22
2023-01-26T22:35:49.193Z,-0.19
2023-01-26T22:38:19.712Z,-0.46
2023-01-26T22:41:34.589Z,-0.07
2023-01-26T22:43:43.821Z,0.02
2023-01-26T22:46:12.896Z,0.02
2023-01-26T22:48:41.881Z,0.00
2023-01-26T22:51:26.837Z,0.05
2023-01-26T22:53:59.308Z,0.13
2023-01-26T22:56:28.569Z,0.12
2023-01-26T22:59:01.004Z,0.14
2023-01-26T23:01:32.477Z,0.12
2023-01-26T23:04:05.611Z,0.22
2023-01-26T23:06:34.702Z,0.29
2023-01-26T23:09:07.262Z,0.18
2023-01-26T23:11:36.211Z,0.13
2023-01-26T23:14:22.785Z,0.16
2023-01-26T23:17:20.131Z,0.28
2023-01-26T23:19:56.993Z,0.02
2023-01-26T23:22:53.938Z,0.12
2023-01-26T23:25:45.661Z,0.14
2023-01-26T23:28:14.545Z,0.18
2023-01-26T23:30:43.307Z,0.25
2023-01-26T23:33:15.282Z,0.16
2023-01-26T23:35:44.392Z,0.21
2023-01-26T23:38:13.698Z,0.23
2023-01-26T23:40:43.876Z,0.25
2023-01-26T23:43:17.084Z,0.21
2023-01-26T23:45:47.205Z,0.24
2023-01-26T23:48:16.494Z,0.15
2023-01-26T23:50:45.178Z,0.10
2023-01-26T23:53:14.293Z,0.15
2023-01-26T23:55:44.503Z,0.28
2023-01-26T23:58:14.730Z,0.23
